Time;durP1;ratioP1;P1;durP2;ratioP2;P2;SDS_P1;SDS_P2;PMS_P1;PMS_P2;Temp;Humidity;BMP_temperature;BMP_pressure;BME280_temperature;BME280_humidity;BME280_pressure;Samples;Min_cycle;Max_cycle;Signal;HPM_P1;HPM_P2
2020/12/26 00:00:28;;;;;;;10.60;7.77;;;;;;;1.40;68.16;96006.03;6976837;28;20726;-71
2020/12/26 00:03:49;;;;;;;8.40;7.47;;;;;;;1.41;68.50;96012.13;6963797;28;20238;-72
2020/12/26 00:07:09;;;;;;;8.73;7.73;;;;;;;1.45;69.12;96019.78;6991483;28;20279;-71
2020/12/26 00:10:29;;;;;;;9.50;8.50;;;;;;;1.48;68.96;96016.16;7010050;28;20641;-71
2020/12/26 00:13:50;;;;;;;9.27;8.27;;;;;;;1.48;68.72;96013.56;6985197;28;20746;-71
2020/12/26 00:17:10;;;;;;;8.80;7.90;;;;;;;1.40;68.87;96006.03;6981354;28;20223;-71
2020/12/26 00:20:31;;;;;;;9.70;8.70;;;;;;;1.38;68.86;95997.38;6978220;28;20234;-72
2020/12/26 00:23:51;;;;;;;9.83;8.83;;;;;;;1.44;69.10;96001.50;7004191;28;20741;-71
2020/12/26 00:27:14;;;;;;;8.83;7.73;;;;;;;1.49;69.26;96004.78;6999942;28;20249;-71
2020/12/26 00:30:34;;;;;;;10.13;7.20;;;;;;;1.53;68.88;96001.13;6995550;28;20216;-71
2020/12/26 00:33:55;;;;;;;10.60;7.87;;;;;;;1.48;68.93;96001.31;6988945;28;20242;-71
2020/12/26 00:37:17;;;;;;;8.93;6.80;;;;;;;1.48;69.53;96001.31;6982494;28;20285;-71
2020/12/26 00:40:38;;;;;;;9.03;8.00;;;;;;;1.47;69.18;95997.00;6988353;28;20225;-71
2020/12/26 00:43:58;;;;;;;10.47;8.33;;;;;;;1.46;68.94;95997.06;6993656;28;20238;-71
2020/12/26 00:47:19;;;;;;;11.50;8.67;;;;;;;1.45;69.10;96001.47;7008758;28;20313;-71
2020/12/26 00:50:39;;;;;;;8.70;7.70;;;;;;;1.45;69.20;96003.22;7019549;28;20802;-71
2020/12/26 00:53:59;;;;;;;9.83;8.83;;;;;;;1.46;69.48;96008.38;7015902;28;20262;-72
2020/12/26 00:57:20;;;;;;;9.10;8.17;;;;;;;1.54;69.72;96013.31;7000656;28;20211;-72
2020/12/26 01:00:40;;;;;;;9.27;8.30;;;;;;;1.64;69.63;96012.84;6997587;28;20198;-71
2020/12/26 01:04:00;;;;;;;9.57;8.60;;;;;;;1.71;69.16;96026.56;6983955;28;20224;-72
2020/12/26 01:07:21;;;;;;;10.37;8.43;;;;;;;1.69;69.45;96024.00;6988117;28;20210;-71
2020/12/26 01:10:41;;;;;;;10.43;9.27;;;;;;;1.69;69.24;96021.38;7018559;28;20213;-71
2020/12/26 01:14:01;;;;;;;12.63;9.67;;;;;;;1.68;69.47;96026.66;7016089;28;20218;-72
2020/12/26 01:17:22;;;;;;;11.00;9.90;;;;;;;1.67;69.57;96030.19;7025243;28;20639;-72
2020/12/26 01:20:42;;;;;;;11.87;10.50;;;;;;;1.63;68.95;96024.25;7001813;28;20207;-72
2020/12/26 01:24:03;;;;;;;12.20;10.40;;;;;;;1.59;69.03;96027.91;6980579;28;20242;-70
2020/12/26 01:27:23;;;;;;;11.53;10.33;;;;;;;1.55;68.96;96039.44;6993840;28;20816;-72
2020/12/26 01:30:44;;;;;;;13.20;10.13;;;;;;;1.57;68.86;96040.19;6995765;28;20232;-71
2020/12/26 01:34:04;;;;;;;11.23;9.73;;;;;;;1.55;68.35;96041.19;6989056;28;20295;-70
2020/12/26 01:37:27;;;;;;;11.07;9.37;;;;;;;1.47;68.41;96043.25;6999361;28;20677;-71
2020/12/26 01:40:49;;;;;;;10.87;9.20;;;;;;;1.50;68.74;96054.47;7005973;28;20638;-71
2020/12/26 01:44:14;;;;;;;10.50;9.43;;;;;;;1.46;68.13;96052.03;7005028;28;20217;-71
2020/12/26 01:47:34;;;;;;;11.70;9.57;;;;;;;1.38;68.03;96052.34;7001754;28;20623;-72
2020/12/26 01:50:56;;;;;;;9.17;8.27;;;;;;;1.28;67.85;96058.84;6990602;28;20679;-72
2020/12/26 01:54:17;;;;;;;6.80;6.10;;;;;;;1.23;67.67;96053.81;6983917;28;20243;-71
2020/12/26 01:57:38;;;;;;;5.23;4.70;;;;;;;1.24;67.75;96072.97;6971948;28;20229;-71
2020/12/26 02:00:58;;;;;;;5.47;4.00;;;;;;;1.21;67.55;96073.94;6990938;28;20218;-72
2020/12/26 02:04:19;;;;;;;6.13;3.80;;;;;;;1.23;67.36;96066.88;6999545;28;20213;-72
2020/12/26 02:07:39;;;;;;;3.80;3.50;;;;;;;1.28;67.05;96070.16;6988328;28;20213;-71
2020/12/26 02:11:05;;;;;;;4.30;3.90;;;;;;;1.30;66.83;96062.25;6999230;28;20625;-71
2020/12/26 02:14:29;;;;;;;5.13;4.63;;;;;;;1.29;66.83;96069.25;7009120;28;20559;-72
2020/12/26 02:17:49;;;;;;;5.70;5.20;;;;;;;1.22;66.96;96061.69;6999724;27;20220;-71
2020/12/26 02:21:10;;;;;;;5.40;4.90;;;;;;;1.19;67.11;96060.06;7000206;28;20210;-72
2020/12/26 02:24:30;;;;;;;5.33;4.40;;;;;;;1.24;67.67;96063.34;7005480;28;20240;-71
2020/12/26 02:27:50;;;;;;;7.77;6.93;;;;;;;1.25;67.91;96066.81;6992136;28;20690;-72
2020/12/26 02:31:11;;;;;;;9.60;8.60;;;;;;;1.29;68.58;96073.63;7002450;28;20219;-72
2020/12/26 02:34:31;;;;;;;12.33;10.07;;;;;;;1.26;68.48;96082.44;6990154;28;20219;-72
2020/12/26 02:37:54;;;;;;;11.47;8.93;;;;;;;1.24;68.62;96078.19;6987650;28;20213;-71
2020/12/26 02:41:14;;;;;;;13.00;9.63;;;;;;;1.23;68.92;96081.72;7003549;28;20748;-71
2020/12/26 02:44:35;;;;;;;10.70;9.70;;;;;;;1.23;68.93;96087.81;7003196;28;20213;-71
2020/12/26 02:47:55;;;;;;;19.77;12.20;;;;;;;1.22;69.29;96091.34;7009148;28;20687;-72
2020/12/26 02:51:15;;;;;;;71.60;15.53;;;;;;;1.24;69.54;96086.03;7000746;28;20415;-71
2020/12/26 02:54:36;;;;;;;18.47;13.70;;;;;;;1.24;69.90;96086.03;6996942;28;20269;-71
2020/12/26 02:57:56;;;;;;;19.30;13.60;;;;;;;1.25;69.65;96087.75;6988737;28;20247;-71
2020/12/26 03:01:19;;;;;;;19.10;13.37;;;;;;;1.23;69.82;96092.19;6983379;28;20615;-71
2020/12/26 03:04:39;;;;;;;23.47;15.23;;;;;;;1.20;69.92;96095.78;6995839;28;20231;-71
2020/12/26 03:08:00;;;;;;;16.30;13.43;;;;;;;1.18;70.03;96096.75;6965051;28;20668;-71
2020/12/26 03:11:22;;;;;;;18.70;14.70;;;;;;;1.20;70.72;96111.50;7013181;27;20226;-71
2020/12/26 03:14:42;;;;;;;19.07;13.77;;;;;;;1.26;70.51;96108.59;6985732;28;20214;-70
2020/12/26 03:18:03;;;;;;;14.20;12.67;;;;;;;1.29;70.57;96108.50;7002872;28;20226;-71
2020/12/26 03:21:23;;;;;;;15.70;14.07;;;;;;;1.30;70.18;96114.59;6974862;28;20371;-72
2020/12/26 03:24:44;;;;;;;13.80;12.30;;;;;;;1.36;70.56;96121.34;7020234;28;20622;-71
2020/12/26 03:28:04;;;;;;;15.33;12.27;;;;;;;1.42;70.29;96113.25;6970753;28;20306;-71
2020/12/26 03:31:25;;;;;;;21.07;15.60;;;;;;;1.45;70.37;96121.00;6983768;28;20298;-71
2020/12/26 03:34:48;;;;;;;19.80;14.80;;;;;;;1.45;70.25;96116.63;7007359;28;20230;-71
2020/12/26 03:38:08;;;;;;;16.30;13.33;;;;;;;1.49;70.01;96112.94;6997363;28;20225;-69
2020/12/26 03:41:28;;;;;;;14.17;12.57;;;;;;;1.48;69.97;96115.63;6994182;28;20218;-72
2020/12/26 03:44:52;;;;;;;13.93;12.07;;;;;;;1.47;70.20;96113.91;7003396;28;20675;-71
2020/12/26 03:48:12;;;;;;;13.67;12.27;;;;;;;1.42;69.86;96118.47;6991395;28;20248;-71
2020/12/26 03:51:33;;;;;;;13.93;10.80;;;;;;;1.45;70.22;96119.22;7010081;28;22470;-71
2020/12/26 03:54:53;;;;;;;13.63;11.80;;;;;;;1.50;70.12;96124.28;6986674;28;20237;-71
2020/12/26 03:58:13;;;;;;;12.90;11.27;;;;;;;1.51;69.77;96124.19;6998557;28;20249;-72
2020/12/26 04:01:34;;;;;;;13.20;11.00;;;;;;;1.52;70.07;96120.66;6982578;28;20217;-71
2020/12/26 04:04:54;;;;;;;13.57;10.63;;;;;;;1.55;69.80;96117.94;6995404;28;20256;-71
2020/12/26 04:08:14;;;;;;;13.07;10.50;;;;;;;1.62;70.16;96122.00;6978111;28;20270;-71
2020/12/26 04:11:35;;;;;;;13.20;11.13;;;;;;;1.68;69.59;96106.06;6994349;28;20246;-71
2020/12/26 04:14:55;;;;;;;16.30;12.63;;;;;;;1.68;69.26;96115.69;6970042;28;20234;-71
2020/12/26 04:18:16;;;;;;;12.97;10.30;;;;;;;1.65;68.95;96108.81;6994360;28;20251;-71
2020/12/26 04:21:36;;;;;;;13.47;10.87;;;;;;;1.66;69.21;96110.50;6987855;28;20217;-71
2020/12/26 04:24:56;;;;;;;10.67;9.13;;;;;;;1.70;69.24;96111.25;6975305;28;20303;-71
2020/12/26 04:28:17;;;;;;;11.00;9.90;;;;;;;1.67;68.77;96125.28;6989383;28;20247;-70
2020/12/26 04:31:37;;;;;;;11.27;10.13;;;;;;;1.65;69.16;96124.53;7001648;28;20225;-72
2020/12/26 04:34:57;;;;;;;11.80;9.73;;;;;;;1.66;68.80;96122.75;6997143;28;20766;-71
2020/12/26 04:38:20;;;;;;;12.17;10.97;;;;;;;1.66;69.38;96138.47;6996746;28;20705;-71
2020/12/26 04:41:41;;;;;;;10.87;9.73;;;;;;;1.70;69.26;96134.81;6983714;28;20582;-72
2020/12/26 04:45:02;;;;;;;11.53;10.33;;;;;;;1.70;69.48;96125.19;6991543;28;21131;-72
2020/12/26 04:48:26;;;;;;;12.10;10.90;;;;;;;1.72;69.29;96122.50;6999861;28;20596;-71
2020/12/26 04:51:50;;;;;;;11.30;10.30;;;;;;;1.75;69.07;96127.63;7010650;28;20960;-71
2020/12/26 04:55:13;;;;;;;11.93;10.77;;;;;;;1.76;68.86;96134.53;7004890;28;20297;-71
2020/12/26 04:58:37;;;;;;;13.07;11.27;;;;;;;1.76;68.88;96137.16;7025120;27;20232;-71
2020/12/26 05:01:57;;;;;;;14.40;10.53;;;;;;;1.79;68.94;96144.91;7013117;28;20356;-71
2020/12/26 05:05:17;;;;;;;11.60;10.23;;;;;;;1.78;68.31;96137.97;7024959;28;20310;-71
2020/12/26 05:08:38;;;;;;;10.87;9.67;;;;;;;1.71;68.55;96142.59;6994066;28;20313;-71
2020/12/26 05:12:00;;;;;;;11.67;9.27;;;;;;;1.72;68.26;96153.91;6996681;28;20231;-71
2020/12/26 05:15:23;;;;;;;12.73;9.63;;;;;;;1.71;68.10;96152.22;7019995;28;20245;-71
2020/12/26 05:18:45;;;;;;;10.20;9.17;;;;;;;1.72;68.36;96146.06;6995735;28;20697;-70
2020/12/26 05:22:08;;;;;;;11.93;9.63;;;;;;;1.77;68.36;96151.97;6988451;28;20671;-71
2020/12/26 05:25:28;;;;;;;13.20;11.77;;;;;;;1.78;68.08;96147.56;7003718;28;20272;-71
2020/12/26 05:28:58;;;;;;;12.03;10.60;;;;;;;1.78;68.22;96151.06;7027354;28;20222;-71
2020/12/26 05:32:20;;;;;;;10.47;9.47;;;;;;;1.76;68.57;96158.09;6994342;28;20219;-71
2020/12/26 05:35:45;;;;;;;11.50;9.50;;;;;;;1.78;68.29;96161.53;6992038;28;20221;-72
2020/12/26 05:39:05;;;;;;;9.73;8.73;;;;;;;1.82;68.43;96170.09;6996211;28;20630;-72
2020/12/26 05:42:27;;;;;;;11.73;10.53;;;;;;;1.80;67.94;96170.19;7012016;27;20785;-71
2020/12/26 05:45:48;;;;;;;10.90;9.80;;;;;;;1.78;68.29;96168.53;6995430;28;20223;-70
2020/12/26 05:49:26;;;;;;;10.53;9.53;;;;;;;1.80;68.38;96172.81;6996490;28;20677;-72
2020/12/26 05:52:53;;;;;;;11.87;10.30;;;;;;;1.83;68.41;96175.28;6988499;28;20590;-70
2020/12/26 05:56:18;;;;;;;10.30;9.27;;;;;;;1.86;67.86;96167.28;7009889;28;20217;-71
2020/12/26 05:59:49;;;;;;;9.63;8.63;;;;;;;1.85;67.79;96168.25;6982891;28;20695;-71
2020/12/26 06:03:23;;;;;;;9.30;8.30;;;;;;;1.82;67.56;96181.44;6968021;28;20232;-71
2020/12/26 06:06:47;;;;;;;10.23;7.97;;;;;;;1.83;67.57;96177.91;6993606;28;20218;-71
2020/12/26 06:10:09;;;;;;;9.70;8.50;;;;;;;1.85;67.48;96186.56;7002219;28;20285;-72
2020/12/26 06:13:31;;;;;;;10.07;8.57;;;;;;;1.85;67.37;96189.19;6995917;28;20322;-71
2020/12/26 06:16:55;;;;;;;10.30;8.60;;;;;;;1.85;67.41;96186.56;7023611;28;20215;-71
2020/12/26 06:20:18;;;;;;;9.83;8.73;;;;;;;1.89;67.60;96182.91;6996482;28;20255;-71
2020/12/26 06:23:39;;;;;;;11.23;9.47;;;;;;;1.92;68.04;96189.78;6989628;28;20233;-71
2020/12/26 06:27:01;;;;;;;11.63;9.73;;;;;;;1.95;67.93;96189.66;6993278;28;20211;-71
2020/12/26 06:30:22;;;;;;;12.30;10.17;;;;;;;1.92;67.90;96195.88;6993896;28;20667;-71
2020/12/26 06:33:44;;;;;;;11.23;10.13;;;;;;;1.91;67.85;96190.72;6994161;28;20226;-71
2020/12/26 06:37:06;;;;;;;12.90;11.00;;;;;;;1.78;68.03;96179.84;6995552;28;20202;-71
2020/12/26 06:40:26;;;;;;;11.93;10.63;;;;;;;1.75;68.42;96177.38;6998588;28;20213;-71
2020/12/26 06:43:51;;;;;;;11.07;9.97;;;;;;;1.76;68.38;96179.06;6986784;28;20262;-71
2020/12/26 06:47:37;;;;;;;11.87;10.67;;;;;;;1.78;68.18;96176.38;6995253;27;20287;-71
2020/12/26 06:51:21;;;;;;;12.10;10.63;;;;;;;1.75;68.49;96184.38;6991817;28;20226;-71
2020/12/26 06:54:44;;;;;;;13.80;10.87;;;;;;;1.74;68.68;96191.38;6999105;28;20215;-71
2020/12/26 06:58:11;;;;;;;11.37;10.27;;;;;;;1.71;68.92;96194.13;6992977;28;20216;-70
2020/12/26 07:01:36;;;;;;;12.13;10.33;;;;;;;1.72;68.75;96178.34;6983387;28;20215;-71
2020/12/26 07:04:57;;;;;;;11.13;9.70;;;;;;;1.76;68.55;96188.69;6991379;28;20214;-71
2020/12/26 07:08:22;;;;;;;12.33;11.13;;;;;;;1.80;68.47;96199.00;6982770;28;20223;-71
2020/12/26 07:11:48;;;;;;;13.43;12.13;;;;;;;1.80;68.53;96192.91;6991075;28;20226;-71
2020/12/26 07:15:09;;;;;;;12.33;11.03;;;;;;;1.84;68.59;96195.34;6990205;28;20337;-71
2020/12/26 07:18:29;;;;;;;10.83;9.73;;;;;;;1.90;68.90;96195.09;6986051;28;20223;-71
2020/12/26 07:21:53;;;;;;;11.27;10.07;;;;;;;1.91;68.83;96191.53;6996846;28;20586;-69
2020/12/26 07:25:14;;;;;;;12.07;10.77;;;;;;;1.91;67.99;96195.94;7005487;28;20629;-71
2020/12/26 07:28:40;;;;;;;13.73;11.27;;;;;;;1.88;67.76;96188.19;7001073;28;20726;-71
2020/12/26 07:32:00;;;;;;;13.33;10.70;;;;;;;1.91;68.31;96193.34;6991472;28;20230;-71
2020/12/26 07:35:26;;;;;;;12.30;10.20;;;;;;;1.97;68.13;96193.06;6992871;28;20231;-69
2020/12/26 07:39:04;;;;;;;11.93;10.07;;;;;;;1.97;67.88;96193.06;6986185;28;20226;-71
2020/12/26 07:42:25;;;;;;;11.07;9.97;;;;;;;1.92;67.89;96188.00;7015618;28;20241;-70
2020/12/26 07:45:46;;;;;;;12.20;10.23;;;;;;;1.96;68.14;96199.25;7009420;28;20220;-71
2020/12/26 07:49:13;;;;;;;11.80;10.03;;;;;;;1.95;67.68;96198.38;7023285;28;20205;-72
2020/12/26 07:52:34;;;;;;;12.43;10.20;;;;;;;1.91;68.03;96202.00;7020249;28;20686;-71
2020/12/26 07:55:54;;;;;;;13.33;10.70;;;;;;;1.97;68.24;96191.28;7005739;28;20199;-70
2020/12/26 07:59:15;;;;;;;11.87;9.77;;;;;;;2.05;67.85;96193.63;7011457;28;20220;-71
2020/12/26 08:02:35;;;;;;;13.23;11.20;;;;;;;2.11;67.79;96206.47;6992198;28;20256;-71
2020/12/26 08:05:58;;;;;;;12.90;9.80;;;;;;;2.15;68.04;96206.28;7022772;27;20219;-71
2020/12/26 08:09:18;;;;;;;15.50;11.27;;;;;;;2.21;67.48;96196.47;7027977;27;20232;-71
2020/12/26 08:12:47;;;;;;;12.40;11.03;;;;;;;2.30;67.99;96203.94;6995098;28;20636;-71
2020/12/26 08:16:07;;;;;;;12.87;11.50;;;;;;;2.33;67.67;96206.44;6996939;28;20216;-71
2020/12/26 08:19:28;;;;;;;13.00;11.60;;;;;;;2.42;67.51;96191.16;6989707;28;20228;-72
2020/12/26 08:22:48;;;;;;;15.00;12.97;;;;;;;2.49;67.32;96192.63;6999474;28;20222;-72
2020/12/26 08:26:11;;;;;;;18.60;15.37;;;;;;;2.61;67.25;96191.28;7030932;28;20227;-72
2020/12/26 08:29:32;;;;;;;19.37;17.27;;;;;;;2.80;66.82;96191.31;7035733;28;20270;-72
2020/12/26 08:33:31;;;;;;;23.93;18.83;;;;;;;3.03;66.50;96191.16;6996421;28;20291;-71
2020/12/26 08:36:57;;;;;;;26.90;23.20;;;;;;;3.67;66.47;96190.84;7021204;28;20601;-71
2020/12/26 08:40:18;;;;;;;25.93;21.97;;;;;;;4.51;65.94;96177.94;7029696;28;20238;-71
2020/12/26 08:43:42;;;;;;;21.70;18.90;;;;;;;5.36;64.61;96168.22;7005108;28;20690;-72
2020/12/26 08:47:02;;;;;;;11.97;10.63;;;;;;;6.23;63.06;96160.75;7023033;28;20223;-72
2020/12/26 08:50:23;;;;;;;10.77;7.43;;;;;;;6.96;61.09;96156.41;7007047;28;20218;-74
2020/12/26 08:53:44;;;;;;;13.03;7.63;;;;;;;7.63;59.37;96159.28;7011688;27;20254;-72
2020/12/26 08:57:18;;;;;;;8.70;6.40;;;;;;;8.37;57.22;96156.25;7009922;28;20207;-72
2020/12/26 09:00:42;;;;;;;9.73;6.30;;;;;;;9.02;54.49;96140.38;7013390;28;20220;-73
2020/12/26 09:04:09;;;;;;;5.50;4.90;;;;;;;9.50;51.75;96137.94;6998054;28;21026;-73
2020/12/26 09:07:30;;;;;;;10.60;6.23;;;;;;;9.70;50.29;96142.69;7009564;28;20213;-73
2020/12/26 09:10:59;;;;;;;8.60;6.63;;;;;;;9.81;50.45;96138.28;7014987;28;20284;-72
2020/12/26 09:14:21;;;;;;;7.43;6.20;;;;;;;9.87;49.25;96144.97;6987933;28;20302;-72
2020/12/26 09:17:41;;;;;;;6.77;5.50;;;;;;;9.79;48.51;96137.56;6978978;28;20210;-73
2020/12/26 09:21:05;;;;;;;6.17;4.53;;;;;;;9.78;47.90;96148.28;6976985;28;20226;-73
2020/12/26 09:24:25;;;;;;;7.20;5.87;;;;;;;9.47;46.80;96149.59;6985822;28;20303;-72
2020/12/26 09:27:46;;;;;;;7.47;6.30;;;;;;;9.26;47.45;96144.00;6991914;28;20221;-72
2020/12/26 09:31:11;;;;;;;6.87;6.23;;;;;;;9.18;48.67;96156.09;6994667;28;20211;-72
2020/12/26 09:34:37;;;;;;;7.70;6.20;;;;;;;9.02;48.96;96149.19;6983082;28;20207;-72
2020/12/26 09:37:57;;;;;;;7.23;5.03;;;;;;;9.03;49.18;96150.88;6973754;28;20231;-71
2020/12/26 09:41:25;;;;;;;6.33;5.20;;;;;;;9.18;49.02;96154.28;6957375;28;20702;-73
2020/12/26 09:44:46;;;;;;;5.17;3.97;;;;;;;9.40;48.44;96151.00;6981511;28;20221;-73
2020/12/26 09:48:08;;;;;;;5.00;3.50;;;;;;;9.49;46.76;96155.66;6947480;28;20214;-72
2020/12/26 09:51:29;;;;;;;4.40;2.93;;;;;;;9.43;45.97;96156.09;6988992;28;20248;-72
2020/12/26 09:54:49;;;;;;;5.73;3.07;;;;;;;9.48;45.32;96162.75;6988543;28;20586;-72
2020/12/26 09:58:10;;;;;;;3.00;2.40;;;;;;;9.54;43.70;96160.63;6974673;28;20298;-73
2020/12/26 10:01:30;;;;;;;2.63;2.40;;;;;;;9.70;43.13;96161.25;6994872;28;20253;-72
2020/12/26 10:04:50;;;;;;;4.90;2.80;;;;;;;10.05;42.17;96153.41;6980789;28;20215;-72
2020/12/26 10:08:11;;;;;;;2.57;2.37;;;;;;;10.34;41.12;96154.81;6982800;28;20215;-73
2020/12/26 10:11:32;;;;;;;3.27;2.53;;;;;;;10.76;40.25;96156.94;6992608;28;20684;-74
2020/12/26 10:14:53;;;;;;;2.57;2.37;;;;;;;11.03;38.63;96161.13;6993294;28;20616;-73
2020/12/26 10:18:13;;;;;;;2.90;2.17;;;;;;;11.16;38.39;96152.13;6972403;28;20742;-73
2020/12/26 10:21:36;;;;;;;3.87;2.30;;;;;;;11.42;37.93;96149.22;6978764;28;20602;-72
2020/12/26 10:24:59;;;;;;;3.87;1.93;;;;;;;11.68;35.62;96148.03;6992525;28;20218;-74
2020/12/26 10:28:22;;;;;;;3.93;2.30;;;;;;;11.97;36.04;96146.59;6994260;28;20687;-73
2020/12/26 10:31:46;;;;;;;4.53;3.00;;;;;;;12.45;35.05;96136.44;6973419;27;20221;-74
2020/12/26 10:35:09;;;;;;;3.90;2.50;;;;;;;12.89;34.28;96124.75;6982712;28;20245;-74
2020/12/26 10:38:29;;;;;;;4.57;3.27;;;;;;;13.45;34.07;96126.25;6982655;28;20289;-74
2020/12/26 10:41:50;;;;;;;4.43;2.50;;;;;;;14.01;32.45;96122.16;6975613;28;20249;-75
2020/12/26 10:45:10;;;;;;;5.00;3.67;;;;;;;14.80;32.34;96117.66;6977414;28;20213;-76
2020/12/26 10:48:33;;;;;;;4.77;4.27;;;;;;;15.66;31.76;96126.56;6997810;28;20587;-73
2020/12/26 10:51:56;;;;;;;7.87;4.97;;;;;;;16.50;31.08;96121.91;6982057;28;20226;-75
2020/12/26 10:55:17;;;;;;;5.57;4.93;;;;;;;16.83;31.00;96115.91;6990695;28;20227;-73
2020/12/26 10:58:39;;;;;;;5.07;4.47;;;;;;;17.45;30.31;96109.53;7005840;28;20649;-74
2020/12/26 11:02:01;;;;;;;4.23;3.83;;;;;;;17.79;28.77;96108.78;6983337;28;20387;-73
2020/12/26 11:05:22;;;;;;;5.40;4.53;;;;;;;18.05;28.21;96101.53;7002960;28;20206;-74
2020/12/26 11:08:42;;;;;;;4.30;3.90;;;;;;;18.14;28.26;96097.03;6990221;28;20233;-74
2020/12/26 11:12:07;;;;;;;5.90;5.03;;;;;;;17.93;27.46;96092.91;7002058;28;20298;-73
2020/12/26 11:15:28;;;;;;;4.83;4.43;;;;;;;17.13;28.19;96091.38;6992331;28;20271;-74
2020/12/26 11:18:48;;;;;;;5.60;5.10;;;;;;;16.29;29.41;96092.72;6980943;28;20245;-75
2020/12/26 11:22:09;;;;;;;6.03;5.37;;;;;;;15.57;30.26;96088.13;7000531;28;20231;-74
2020/12/26 11:25:29;;;;;;;5.63;5.00;;;;;;;14.71;30.90;96090.91;6970641;28;20715;-74
2020/12/26 11:28:50;;;;;;;5.90;4.67;;;;;;;13.70;32.52;96097.31;6979648;28;20211;-74
2020/12/26 11:32:10;;;;;;;5.63;4.40;;;;;;;12.81;33.21;96097.91;6980889;28;20210;-74
2020/12/26 11:35:35;;;;;;;5.53;4.60;;;;;;;11.83;34.73;96093.63;6992671;28;20228;-75
2020/12/26 11:38:58;;;;;;;6.03;4.80;;;;;;;11.06;36.03;96097.13;7004394;28;20211;-74
2020/12/26 11:42:21;;;;;;;5.83;5.23;;;;;;;10.56;37.11;96091.16;6987996;28;20222;-74
2020/12/26 11:45:41;;;;;;;9.67;4.83;;;;;;;10.15;38.32;96091.59;7008430;28;20311;-74
2020/12/26 11:49:04;;;;;;;6.07;5.30;;;;;;;9.61;38.04;96088.47;6990821;28;20219;-73
2020/12/26 11:52:27;;;;;;;5.30;4.80;;;;;;;9.29;39.78;96089.94;7009932;28;20287;-73
2020/12/26 11:55:52;;;;;;;6.23;4.60;;;;;;;9.10;40.72;96092.19;7009160;28;20251;-74
2020/12/26 11:59:12;;;;;;;5.10;4.60;;;;;;;8.80;40.01;96089.84;7003605;28;20217;-74
2020/12/26 12:02:37;;;;;;;5.80;4.83;;;;;;;8.62;40.88;96086.66;6994523;28;20225;-73
2020/12/26 12:05:58;;;;;;;5.20;4.70;;;;;;;8.33;41.33;96091.25;7000322;28;20328;-73
2020/12/26 12:09:20;;;;;;;5.50;4.90;;;;;;;8.16;41.92;96094.13;6997537;28;20213;-73
2020/12/26 12:12:41;;;;;;;5.57;4.63;;;;;;;8.02;41.83;96092.41;6993911;28;20303;-74
2020/12/26 12:16:02;;;;;;;8.87;5.80;;;;;;;7.94;41.42;96089.41;6998028;28;20210;-72
2020/12/26 12:19:24;;;;;;;5.60;5.00;;;;;;;7.89;41.71;96091.50;7005503;28;20247;-73
2020/12/26 12:22:45;;;;;;;5.70;3.60;;;;;;;7.83;41.94;96089.25;6980416;28;20287;-73
2020/12/26 12:26:05;;;;;;;4.00;3.47;;;;;;;7.78;42.24;96083.41;7000836;28;20206;-72
2020/12/26 12:29:28;;;;;;;4.10;3.17;;;;;;;7.73;41.67;96088.16;6994370;28;20294;-73
2020/12/26 12:32:51;;;;;;;4.77;4.07;;;;;;;7.64;42.10;96091.41;6989326;28;20696;-73
2020/12/26 12:36:13;;;;;;;8.37;5.53;;;;;;;7.46;42.87;96089.91;6996094;28;20219;-73
2020/12/26 12:39:36;;;;;;;6.43;4.80;;;;;;;7.41;43.51;96087.53;6991717;28;20758;-72
2020/12/26 12:42:59;;;;;;;6.00;5.10;;;;;;;7.40;44.06;96085.00;7004840;28;20586;-72
2020/12/26 12:46:19;;;;;;;6.20;5.30;;;;;;;7.30;43.60;96077.66;7004496;28;20219;-73
2020/12/26 12:49:47;;;;;;;5.77;4.40;;;;;;;7.28;44.29;96071.63;6999936;28;20212;-72
2020/12/26 12:53:09;;;;;;;5.47;4.50;;;;;;;7.24;44.77;96064.00;7015614;28;20210;-72
2020/12/26 12:56:34;;;;;;;7.20;4.70;;;;;;;7.15;44.85;96064.56;6981747;28;20215;-72
2020/12/26 12:59:55;;;;;;;5.90;4.63;;;;;;;7.06;45.54;96060.69;6997056;28;20256;-72
2020/12/26 13:03:15;;;;;;;5.67;4.07;;;;;;;7.09;45.18;96060.50;7019790;27;20209;-72
2020/12/26 13:06:41;;;;;;;5.23;3.43;;;;;;;7.07;44.10;96056.28;7020388;28;20239;-73
2020/12/26 13:10:05;;;;;;;4.10;3.63;;;;;;;6.96;44.19;96056.94;7020862;28;20207;-72
2020/12/26 13:13:27;;;;;;;6.00;3.73;;;;;;;6.83;44.15;96061.28;7010704;28;20244;-72
2020/12/26 13:16:50;;;;;;;5.27;4.43;;;;;;;6.72;44.64;96056.66;7027261;28;20300;-72
2020/12/26 13:20:13;;;;;;;5.50;3.93;;;;;;;6.64;45.18;96063.34;6999496;28;20215;-73
2020/12/26 13:23:33;;;;;;;8.97;4.40;;;;;;;6.59;46.63;96062.78;7006042;28;20233;-72
2020/12/26 13:26:56;;;;;;;5.33;4.13;;;;;;;6.52;47.03;96064.94;7034096;27;20213;-72
2020/12/26 13:30:19;;;;;;;4.87;3.80;;;;;;;6.47;46.67;96059.06;7005629;28;20233;-72
2020/12/26 13:33:42;;;;;;;5.27;3.70;;;;;;;6.40;45.93;96050.66;7004414;27;20802;-71
2020/12/26 13:37:03;;;;;;;7.53;5.13;;;;;;;6.33;46.06;96054.63;7017890;28;20215;-72
2020/12/26 13:40:23;;;;;;;5.33;4.63;;;;;;;6.28;46.10;96048.78;6981964;28;20219;-72
2020/12/26 13:43:43;;;;;;;4.87;3.73;;;;;;;6.21;45.77;96043.94;7028011;28;20278;-72
2020/12/26 13:47:06;;;;;;;4.47;3.30;;;;;;;6.06;45.58;96037.78;7021336;28;20221;-72
2020/12/26 13:50:27;;;;;;;4.17;3.23;;;;;;;5.95;46.21;96034.91;7018299;28;20351;-73
2020/12/26 13:53:47;;;;;;;3.63;2.70;;;;;;;5.87;46.34;96031.88;7020360;28;20210;-73
2020/12/26 13:57:07;;;;;;;2.93;2.33;;;;;;;5.83;45.66;96027.72;7038728;27;20215;-72
2020/12/26 14:00:28;;;;;;;3.10;2.07;;;;;;;5.81;44.39;96021.66;7028959;28;20646;-72
2020/12/26 14:03:48;;;;;;;2.83;2.23;;;;;;;5.81;44.38;96021.66;7005053;28;20218;-72
2020/12/26 14:07:13;;;;;;;1.90;1.50;;;;;;;5.77;42.62;96017.50;6986806;28;20214;-72
2020/12/26 14:10:34;;;;;;;2.43;1.80;;;;;;;5.78;42.46;96019.22;6990011;28;20213;-72
2020/12/26 14:13:59;;;;;;;1.70;1.50;;;;;;;5.70;40.66;96021.44;6989027;28;20252;-73
2020/12/26 14:17:21;;;;;;;1.60;1.50;;;;;;;5.59;40.05;96022.03;6998303;28;20214;-72
2020/12/26 14:20:42;;;;;;;2.00;1.30;;;;;;;5.46;39.79;96019.25;6989179;28;20206;-72
2020/12/26 14:24:05;;;;;;;2.23;1.43;;;;;;;5.36;39.55;96011.97;6983908;28;20326;-72
2020/12/26 14:27:31;;;;;;;2.33;1.60;;;;;;;5.35;39.73;96015.53;6981062;28;20589;-73
2020/12/26 14:30:52;;;;;;;3.30;1.53;;;;;;;5.18;37.93;96001.50;7007126;28;20213;-72
2020/12/26 14:34:12;;;;;;;1.87;1.67;;;;;;;4.84;37.99;96006.09;6996664;28;20229;-71
2020/12/26 14:37:33;;;;;;;3.83;2.10;;;;;;;4.65;39.62;96004.47;6991458;28;20233;-72
2020/12/26 14:40:53;;;;;;;4.83;3.00;;;;;;;4.69;40.95;95998.09;7019776;27;20298;-73
2020/12/26 14:44:13;;;;;;;4.87;2.83;;;;;;;4.65;42.25;95993.94;6979468;28;20230;-74
2020/12/26 14:47:39;;;;;;;5.97;2.90;;;;;;;4.72;42.89;96005.84;6995455;27;20249;-73
2020/12/26 14:51:05;;;;;;;3.70;3.23;;;;;;;4.62;43.29;96002.00;6988766;28;20226;-74
2020/12/26 14:54:25;;;;;;;4.03;2.97;;;;;;;4.45;43.46;95996.78;6981013;28;20318;-73
2020/12/26 14:57:46;;;;;;;4.53;3.40;;;;;;;4.30;44.82;95994.97;6949429;28;20211;-74
2020/12/26 15:01:10;;;;;;;4.73;3.43;;;;;;;4.21;45.19;96003.34;6985501;28;20269;-72
2020/12/26 15:04:30;;;;;;;4.07;3.47;;;;;;;4.17;45.23;95997.41;6981681;28;20220;-72
2020/12/26 15:07:50;;;;;;;4.00;3.60;;;;;;;4.26;45.26;95991.66;6975761;28;20214;-74
2020/12/26 15:11:13;;;;;;;5.23;3.23;;;;;;;4.24;43.99;95980.34;6976540;28;20218;-74
2020/12/26 15:14:33;;;;;;;3.87;2.27;;;;;;;4.12;42.98;95980.16;6989341;28;20224;-72
2020/12/26 15:17:56;;;;;;;4.13;2.90;;;;;;;4.11;43.43;95987.19;6958065;28;20227;-71
2020/12/26 15:21:17;;;;;;;3.53;3.13;;;;;;;4.21;43.36;95974.41;6972497;28;20225;-72
2020/12/26 15:24:38;;;;;;;3.80;2.80;;;;;;;4.31;43.06;95967.75;6972084;28;20289;-72
2020/12/26 15:27:58;;;;;;;3.43;2.80;;;;;;;4.40;43.00;95962.00;6958484;28;20211;-73
2020/12/26 15:31:20;;;;;;;3.30;2.97;;;;;;;4.43;42.75;95966.22;6964028;28;20225;-72
2020/12/26 15:34:43;;;;;;;4.43;2.90;;;;;;;4.47;42.79;95963.38;6979331;28;20281;-72
2020/12/26 15:38:03;;;;;;;4.07;3.40;;;;;;;4.47;43.19;95960.75;6971923;28;20225;-71
2020/12/26 15:41:24;;;;;;;3.57;3.20;;;;;;;4.39;44.19;95957.66;6992965;28;20222;-70
2020/12/26 15:44:47;;;;;;;3.57;3.10;;;;;;;4.31;45.38;95958.09;6959791;28;20212;-71
2020/12/26 15:48:08;;;;;;;6.83;3.30;;;;;;;4.24;46.35;95959.31;6998790;28;20262;-72
2020/12/26 15:51:28;;;;;;;5.53;3.50;;;;;;;4.12;47.62;95946.84;6986558;28;20308;-72